sensor_id;sensor_type;location;lat;lon;timestamp;temperature;humidity
16064;DHT22;8136;53.172;8.256;2023-02-16T00:00:29;7.40;99.90
16064;DHT22;8136;53.172;8.256;2023-02-16T00:02:56;7.40;99.90
16064;DHT22;8136;53.172;8.256;2023-02-16T00:05:25;7.40;99.90
16064;DHT22;8136;53.172;8.256;2023-02-16T00:07:53;7.30;99.90
16064;DHT22;8136;53.172;8.256;2023-02-16T00:10:22;7.30;99.90
16064;DHT22;8136;53.172;8.256;2023-02-16T00:12:49;7.30;99.90
16064;DHT22;8136;53.172;8.256;2023-02-16T00:15:34;7.30;99.90
16064;DHT22;8136;53.172;8.256;2023-02-16T00:18:02;7.30;99.90
16064;DHT22;8136;53.172;8.256;2023-02-16T00:20:30;7.30;99.90
16064;DHT22;8136;53.172;8.256;2023-02-16T00:22:58;7.30;99.90
16064;DHT22;8136;53.172;8.256;2023-02-16T00:25:26;7.30;99.90
16064;DHT22;8136;53.172;8.256;2023-02-16T00:27:52;7.40;99.90
16064;DHT22;8136;53.172;8.256;2023-02-16T00:30:20;7.30;99.90
16064;DHT22;8136;53.172;8.256;2023-02-16T00:32:47;7.30;99.90
16064;DHT22;8136;53.172;8.256;2023-02-16T00:35:15;7.30;99.90
16064;DHT22;8136;53.172;8.256;2023-02-16T00:37:42;7.30;99.90
16064;DHT22;8136;53.172;8.256;2023-02-16T00:40:11;7.30;99.90
16064;DHT22;8136;53.172;8.256;2023-02-16T00:42:40;7.30;99.90
16064;DHT22;8136;53.172;8.256;2023-02-16T00:45:12;7.30;99.90
16064;DHT22;8136;53.172;8.256;2023-02-16T00:47:41;7.30;99.90
16064;DHT22;8136;53.172;8.256;2023-02-16T00:50:15;7.20;99.90
16064;DHT22;8136;53.172;8.256;2023-02-16T00:52:43;7.20;99.90
16064;DHT22;8136;53.172;8.256;2023-02-16T00:55:13;7.20;99.90
16064;DHT22;8136;53.172;8.256;2023-02-16T00:57:46;7.20;99.90
16064;DHT22;8136;53.172;8.256;2023-02-16T01:00:18;7.20;99.90
16064;DHT22;8136;53.172;8.256;2023-02-16T01:02:47;7.20;99.90
16064;DHT22;8136;53.172;8.256;2023-02-16T01:05:14;7.20;99.90
16064;DHT22;8136;53.172;8.256;2023-02-16T01:07:41;7.10;99.90
16064;DHT22;8136;53.172;8.256;2023-02-16T01:10:27;7.00;99.90
16064;DHT22;8136;53.172;8.256;2023-02-16T01:13:14;7.00;99.90
16064;DHT22;8136;53.172;8.256;2023-02-16T01:15:41;7.00;99.90
16064;DHT22;8136;53.172;8.256;2023-02-16T01:18:10;7.00;99.90
16064;DHT22;8136;53.172;8.256;2023-02-16T01:20:38;7.00;99.90
16064;DHT22;8136;53.172;8.256;2023-02-16T01:23:05;7.00;99.90
16064;DHT22;8136;53.172;8.256;2023-02-16T01:25:31;7.00;99.90
16064;DHT22;8136;53.172;8.256;2023-02-16T01:27:59;7.00;99.90
16064;DHT22;8136;53.172;8.256;2023-02-16T01:30:27;7.00;99.90
16064;DHT22;8136;53.172;8.256;2023-02-16T01:32:54;7.00;99.90
16064;DHT22;8136;53.172;8.256;2023-02-16T01:35:22;7.00;99.90
16064;DHT22;8136;53.172;8.256;2023-02-16T01:37:50;7.00;99.90
16064;DHT22;8136;53.172;8.256;2023-02-16T01:40:25;6.90;99.90
16064;DHT22;8136;53.172;8.256;2023-02-16T01:42:59;6.90;99.90
16064;DHT22;8136;53.172;8.256;2023-02-16T01:45:33;6.90;99.90
16064;DHT22;8136;53.172;8.256;2023-02-16T01:48:03;6.90;99.90
16064;DHT22;8136;53.172;8.256;2023-02-16T01:50:40;6.90;99.90
16064;DHT22;8136;53.172;8.256;2023-02-16T01:53:14;6.80;99.90
16064;DHT22;8136;53.172;8.256;2023-02-16T01:55:43;6.90;99.90
16064;DHT22;8136;53.172;8.256;2023-02-16T01:58:15;6.80;99.90
16064;DHT22;8136;53.172;8.256;2023-02-16T02:04:24;6.80;99.90
16064;DHT22;8136;53.172;8.256;2023-02-16T02:07:15;6.80;99.90
16064;DHT22;8136;53.172;8.256;2023-02-16T02:09:47;6.80;99.90
16064;DHT22;8136;53.172;8.256;2023-02-16T02:12:22;6.70;99.90
16064;DHT22;8136;53.172;8.256;2023-02-16T02:14:51;6.70;99.90
16064;DHT22;8136;53.172;8.256;2023-02-16T02:17:19;6.60;99.90
16064;DHT22;8136;53.172;8.256;2023-02-16T02:19:56;6.60;99.90
16064;DHT22;8136;53.172;8.256;2023-02-16T02:28:59;6.50;99.90
16064;DHT22;8136;53.172;8.256;2023-02-16T02:31:37;6.60;99.90
16064;DHT22;8136;53.172;8.256;2023-02-16T02:34:21;6.50;99.90
16064;DHT22;8136;53.172;8.256;2023-02-16T02:36:52;6.50;99.90
16064;DHT22;8136;53.172;8.256;2023-02-16T02:39:32;6.40;99.90
16064;DHT22;8136;53.172;8.256;2023-02-16T02:42:03;6.40;99.90
16064;DHT22;8136;53.172;8.256;2023-02-16T02:44:39;6.40;99.90
16064;DHT22;8136;53.172;8.256;2023-02-16T02:47:07;6.40;99.90
16064;DHT22;8136;53.172;8.256;2023-02-16T02:49:34;6.40;99.90
16064;DHT22;8136;53.172;8.256;2023-02-16T02:52:01;6.40;99.90
16064;DHT22;8136;53.172;8.256;2023-02-16T02:54:30;6.40;99.90
16064;DHT22;8136;53.172;8.256;2023-02-16T02:57:35;6.30;99.90
16064;DHT22;8136;53.172;8.256;2023-02-16T03:00:24;6.30;99.90
16064;DHT22;8136;53.172;8.256;2023-02-16T03:03:13;6.30;99.90
16064;DHT22;8136;53.172;8.256;2023-02-16T03:05:44;6.20;99.90
16064;DHT22;8136;53.172;8.256;2023-02-16T03:08:14;6.20;99.90
16064;DHT22;8136;53.172;8.256;2023-02-16T03:10:45;6.20;99.90
16064;DHT22;8136;53.172;8.256;2023-02-16T03:13:32;6.20;99.90
16064;DHT22;8136;53.172;8.256;2023-02-16T03:16:05;6.30;99.90
16064;DHT22;8136;53.172;8.256;2023-02-16T03:18:33;6.30;99.90
16064;DHT22;8136;53.172;8.256;2023-02-16T03:21:20;6.30;99.90
16064;DHT22;8136;53.172;8.256;2023-02-16T03:24:07;6.30;99.90
16064;DHT22;8136;53.172;8.256;2023-02-16T03:26:53;6.30;99.90
16064;DHT22;8136;53.172;8.256;2023-02-16T03:29:38;6.20;99.90
16064;DHT22;8136;53.172;8.256;2023-02-16T03:32:07;6.20;99.90
16064;DHT22;8136;53.172;8.256;2023-02-16T03:34:35;6.30;99.90
16064;DHT22;8136;53.172;8.256;2023-02-16T03:37:02;6.30;99.90
16064;DHT22;8136;53.172;8.256;2023-02-16T03:39:31;6.20;99.90
16064;DHT22;8136;53.172;8.256;2023-02-16T03:42:19;6.20;99.90
16064;DHT22;8136;53.172;8.256;2023-02-16T03:44:47;6.20;99.90
16064;DHT22;8136;53.172;8.256;2023-02-16T03:47:15;6.20;99.90
16064;DHT22;8136;53.172;8.256;2023-02-16T03:49:42;6.20;99.90
16064;DHT22;8136;53.172;8.256;2023-02-16T03:52:09;6.20;99.90
16064;DHT22;8136;53.172;8.256;2023-02-16T03:54:36;6.10;99.90
16064;DHT22;8136;53.172;8.256;2023-02-16T03:57:02;6.20;99.90
16064;DHT22;8136;53.172;8.256;2023-02-16T03:59:29;6.10;99.90
16064;DHT22;8136;53.172;8.256;2023-02-16T04:01:56;6.10;99.90
16064;DHT22;8136;53.172;8.256;2023-02-16T04:04:25;6.10;99.90
16064;DHT22;8136;53.172;8.256;2023-02-16T04:06:51;6.10;99.90
16064;DHT22;8136;53.172;8.256;2023-02-16T04:09:18;6.10;99.90
16064;DHT22;8136;53.172;8.256;2023-02-16T04:11:45;6.10;99.90
16064;DHT22;8136;53.172;8.256;2023-02-16T04:14:30;6.10;99.90
16064;DHT22;8136;53.172;8.256;2023-02-16T04:16:56;6.10;99.90
16064;DHT22;8136;53.172;8.256;2023-02-16T04:19:25;6.00;99.90
16064;DHT22;8136;53.172;8.256;2023-02-16T04:21:51;5.90;99.90
16064;DHT22;8136;53.172;8.256;2023-02-16T04:24:18;6.00;99.90
16064;DHT22;8136;53.172;8.256;2023-02-16T04:26:45;6.00;99.90
16064;DHT22;8136;53.172;8.256;2023-02-16T04:29:14;6.00;99.90
16064;DHT22;8136;53.172;8.256;2023-02-16T04:31:40;6.00;99.90
16064;DHT22;8136;53.172;8.256;2023-02-16T04:34:07;5.90;99.90
16064;DHT22;8136;53.172;8.256;2023-02-16T04:36:35;5.90;99.90
16064;DHT22;8136;53.172;8.256;2023-02-16T04:39:02;5.90;99.90
16064;DHT22;8136;53.172;8.256;2023-02-16T04:41:29;5.90;99.90
16064;DHT22;8136;53.172;8.256;2023-02-16T04:43:56;5.90;99.90
16064;DHT22;8136;53.172;8.256;2023-02-16T04:46:23;5.90;99.90
16064;DHT22;8136;53.172;8.256;2023-02-16T04:48:50;5.90;99.90
16064;DHT22;8136;53.172;8.256;2023-02-16T04:51:17;5.90;99.90
16064;DHT22;8136;53.172;8.256;2023-02-16T04:53:45;5.80;99.90
16064;DHT22;8136;53.172;8.256;2023-02-16T04:56:12;5.80;99.90
16064;DHT22;8136;53.172;8.256;2023-02-16T04:58:39;5.80;99.90
16064;DHT22;8136;53.172;8.256;2023-02-16T05:01:06;5.90;99.90
16064;DHT22;8136;53.172;8.256;2023-02-16T05:03:33;6.00;99.90
16064;DHT22;8136;53.172;8.256;2023-02-16T05:06:00;6.00;99.90
16064;DHT22;8136;53.172;8.256;2023-02-16T05:08:26;6.00;99.90
16064;DHT22;8136;53.172;8.256;2023-02-16T05:10:55;6.00;99.90
16064;DHT22;8136;53.172;8.256;2023-02-16T05:13:40;6.00;99.90
16064;DHT22;8136;53.172;8.256;2023-02-16T05:16:24;6.00;99.90
16064;DHT22;8136;53.172;8.256;2023-02-16T05:18:51;6.00;99.90
16064;DHT22;8136;53.172;8.256;2023-02-16T05:21:18;6.00;99.90
16064;DHT22;8136;53.172;8.256;2023-02-16T05:23:57;6.00;99.90
16064;DHT22;8136;53.172;8.256;2023-02-16T05:26:26;6.10;99.90
16064;DHT22;8136;53.172;8.256;2023-02-16T05:28:53;6.10;99.90
16064;DHT22;8136;53.172;8.256;2023-02-16T05:31:21;6.20;99.90
16064;DHT22;8136;53.172;8.256;2023-02-16T05:33:48;6.10;99.90
16064;DHT22;8136;53.172;8.256;2023-02-16T05:36:15;6.10;99.90
16064;DHT22;8136;53.172;8.256;2023-02-16T05:38:42;6.20;99.90
16064;DHT22;8136;53.172;8.256;2023-02-16T05:41:09;6.20;99.90
16064;DHT22;8136;53.172;8.256;2023-02-16T05:43:38;6.20;99.90
16064;DHT22;8136;53.172;8.256;2023-02-16T05:46:08;6.30;99.90
16064;DHT22;8136;53.172;8.256;2023-02-16T05:48:35;6.30;99.90
16064;DHT22;8136;53.172;8.256;2023-02-16T05:51:01;6.30;99.90
16064;DHT22;8136;53.172;8.256;2023-02-16T05:53:28;6.30;99.90
16064;DHT22;8136;53.172;8.256;2023-02-16T05:55:55;6.30;99.90
16064;DHT22;8136;53.172;8.256;2023-02-16T05:58:22;6.30;99.90
16064;DHT22;8136;53.172;8.256;2023-02-16T06:00:50;6.30;99.90
16064;DHT22;8136;53.172;8.256;2023-02-16T06:03:16;6.30;99.90
16064;DHT22;8136;53.172;8.256;2023-02-16T06:05:43;6.40;99.90
16064;DHT22;8136;53.172;8.256;2023-02-16T06:08:10;6.40;99.90
16064;DHT22;8136;53.172;8.256;2023-02-16T06:10:37;6.40;99.90
16064;DHT22;8136;53.172;8.256;2023-02-16T06:13:03;6.40;99.90
16064;DHT22;8136;53.172;8.256;2023-02-16T06:15:30;6.40;99.90
16064;DHT22;8136;53.172;8.256;2023-02-16T06:17:59;6.40;99.90
16064;DHT22;8136;53.172;8.256;2023-02-16T06:20:27;6.40;99.90
16064;DHT22;8136;53.172;8.256;2023-02-16T06:22:54;6.40;99.90
16064;DHT22;8136;53.172;8.256;2023-02-16T06:25:21;6.40;99.90
16064;DHT22;8136;53.172;8.256;2023-02-16T06:27:48;6.40;99.90
16064;DHT22;8136;53.172;8.256;2023-02-16T06:30:15;6.40;99.90
16064;DHT22;8136;53.172;8.256;2023-02-16T06:32:42;6.40;99.90
16064;DHT22;8136;53.172;8.256;2023-02-16T06:35:10;6.50;99.90
16064;DHT22;8136;53.172;8.256;2023-02-16T06:37:36;6.50;99.90
16064;DHT22;8136;53.172;8.256;2023-02-16T06:40:04;6.50;99.90
16064;DHT22;8136;53.172;8.256;2023-02-16T06:42:31;6.50;99.90
16064;DHT22;8136;53.172;8.256;2023-02-16T06:44:58;6.50;99.90
16064;DHT22;8136;53.172;8.256;2023-02-16T06:47:25;6.50;99.90
16064;DHT22;8136;53.172;8.256;2023-02-16T06:49:51;6.50;99.90
16064;DHT22;8136;53.172;8.256;2023-02-16T06:52:20;6.60;99.90
16064;DHT22;8136;53.172;8.256;2023-02-16T06:54:46;6.60;99.90
16064;DHT22;8136;53.172;8.256;2023-02-16T06:57:13;6.50;99.90
16064;DHT22;8136;53.172;8.256;2023-02-16T06:59:40;6.60;99.90
16064;DHT22;8136;53.172;8.256;2023-02-16T07:02:08;6.60;99.90
16064;DHT22;8136;53.172;8.256;2023-02-16T07:04:34;6.60;99.90
16064;DHT22;8136;53.172;8.256;2023-02-16T07:07:01;6.60;99.90
16064;DHT22;8136;53.172;8.256;2023-02-16T07:09:29;6.60;99.90
16064;DHT22;8136;53.172;8.256;2023-02-16T07:11:56;6.60;99.90
16064;DHT22;8136;53.172;8.256;2023-02-16T07:14:23;6.60;99.90
16064;DHT22;8136;53.172;8.256;2023-02-16T07:16:50;6.60;99.90
16064;DHT22;8136;53.172;8.256;2023-02-16T07:19:17;6.60;99.90
16064;DHT22;8136;53.172;8.256;2023-02-16T07:21:44;6.60;99.90
16064;DHT22;8136;53.172;8.256;2023-02-16T07:24:24;6.70;99.90
16064;DHT22;8136;53.172;8.256;2023-02-16T07:27:11;6.70;99.90
16064;DHT22;8136;53.172;8.256;2023-02-16T07:36:50;6.70;99.90
16064;DHT22;8136;53.172;8.256;2023-02-16T07:40:10;6.80;99.90
16064;DHT22;8136;53.172;8.256;2023-02-16T07:46:19;6.80;99.90
16064;DHT22;8136;53.172;8.256;2023-02-16T07:48:53;6.80;99.90
16064;DHT22;8136;53.172;8.256;2023-02-16T07:51:21;6.80;99.90
16064;DHT22;8136;53.172;8.256;2023-02-16T07:53:48;6.90;99.90
16064;DHT22;8136;53.172;8.256;2023-02-16T07:56:22;6.90;99.90
16064;DHT22;8136;53.172;8.256;2023-02-16T07:58:50;6.90;99.90
16064;DHT22;8136;53.172;8.256;2023-02-16T08:01:19;6.90;99.90
16064;DHT22;8136;53.172;8.256;2023-02-16T08:03:46;7.00;99.90
16064;DHT22;8136;53.172;8.256;2023-02-16T08:06:13;6.90;99.90
16064;DHT22;8136;53.172;8.256;2023-02-16T08:08:40;7.00;99.90
16064;DHT22;8136;53.172;8.256;2023-02-16T08:11:08;7.00;99.90
16064;DHT22;8136;53.172;8.256;2023-02-16T08:13:35;7.00;99.90
16064;DHT22;8136;53.172;8.256;2023-02-16T08:16:06;7.00;99.90
16064;DHT22;8136;53.172;8.256;2023-02-16T08:18:34;7.00;99.90
16064;DHT22;8136;53.172;8.256;2023-02-16T08:21:07;7.00;99.90
16064;DHT22;8136;53.172;8.256;2023-02-16T08:23:38;7.00;99.90
16064;DHT22;8136;53.172;8.256;2023-02-16T08:26:08;7.00;99.90
16064;DHT22;8136;53.172;8.256;2023-02-16T08:28:35;7.00;99.90
16064;DHT22;8136;53.172;8.256;2023-02-16T08:31:03;7.00;99.90
16064;DHT22;8136;53.172;8.256;2023-02-16T08:33:32;7.00;99.90
16064;DHT22;8136;53.172;8.256;2023-02-16T08:36:00;7.00;99.90
16064;DHT22;8136;53.172;8.256;2023-02-16T08:38:27;7.10;99.90
16064;DHT22;8136;53.172;8.256;2023-02-16T08:40:57;7.10;99.90
16064;DHT22;8136;53.172;8.256;2023-02-16T08:43:25;7.10;99.90
16064;DHT22;8136;53.172;8.256;2023-02-16T08:45:52;7.10;99.90
16064;DHT22;8136;53.172;8.256;2023-02-16T08:48:19;7.20;99.90
16064;DHT22;8136;53.172;8.256;2023-02-16T08:50:48;7.20;99.90
16064;DHT22;8136;53.172;8.256;2023-02-16T08:53:24;7.20;99.90
16064;DHT22;8136;53.172;8.256;2023-02-16T08:55:53;7.30;99.90
16064;DHT22;8136;53.172;8.256;2023-02-16T08:58:21;7.30;99.90
16064;DHT22;8136;53.172;8.256;2023-02-16T09:00:47;7.30;99.90
16064;DHT22;8136;53.172;8.256;2023-02-16T09:03:14;7.30;99.90
16064;DHT22;8136;53.172;8.256;2023-02-16T09:05:43;7.30;99.90
16064;DHT22;8136;53.172;8.256;2023-02-16T09:08:10;7.40;99.90
16064;DHT22;8136;53.172;8.256;2023-02-16T09:10:39;7.40;99.90
16064;DHT22;8136;53.172;8.256;2023-02-16T09:13:09;7.50;99.90
16064;DHT22;8136;53.172;8.256;2023-02-16T09:15:39;7.50;99.90
16064;DHT22;8136;53.172;8.256;2023-02-16T09:18:06;7.50;99.90
16064;DHT22;8136;53.172;8.256;2023-02-16T09:20:35;7.60;99.90
16064;DHT22;8136;53.172;8.256;2023-02-16T09:23:04;7.70;99.90
16064;DHT22;8136;53.172;8.256;2023-02-16T09:32:27;7.80;99.90
16064;DHT22;8136;53.172;8.256;2023-02-16T09:34:54;7.90;99.90
16064;DHT22;8136;53.172;8.256;2023-02-16T09:37:20;7.90;99.90
16064;DHT22;8136;53.172;8.256;2023-02-16T09:39:47;8.00;99.90
16064;DHT22;8136;53.172;8.256;2023-02-16T09:42:22;8.10;99.90
16064;DHT22;8136;53.172;8.256;2023-02-16T09:44:54;8.10;99.90
16064;DHT22;8136;53.172;8.256;2023-02-16T09:47:28;8.10;99.90
16064;DHT22;8136;53.172;8.256;2023-02-16T09:49:56;8.10;99.90
16064;DHT22;8136;53.172;8.256;2023-02-16T09:52:29;8.20;99.90
16064;DHT22;8136;53.172;8.256;2023-02-16T09:55:05;8.20;99.90
16064;DHT22;8136;53.172;8.256;2023-02-16T09:58:14;8.20;99.90
16064;DHT22;8136;53.172;8.256;2023-02-16T10:00:47;8.30;99.90
16064;DHT22;8136;53.172;8.256;2023-02-16T10:03:45;8.30;99.90
16064;DHT22;8136;53.172;8.256;2023-02-16T10:06:45;8.30;99.90
16064;DHT22;8136;53.172;8.256;2023-02-16T10:09:17;8.30;99.90
16064;DHT22;8136;53.172;8.256;2023-02-16T10:11:54;8.20;99.90
16064;DHT22;8136;53.172;8.256;2023-02-16T10:18:28;8.30;99.90
16064;DHT22;8136;53.172;8.256;2023-02-16T10:20:59;8.30;99.90
16064;DHT22;8136;53.172;8.256;2023-02-16T10:23:50;8.30;99.90
16064;DHT22;8136;53.172;8.256;2023-02-16T10:26:39;8.30;99.90
16064;DHT22;8136;53.172;8.256;2023-02-16T10:29:28;8.30;99.90
16064;DHT22;8136;53.172;8.256;2023-02-16T10:32:10;8.30;99.90
16064;DHT22;8136;53.172;8.256;2023-02-16T10:34:48;8.30;99.90
16064;DHT22;8136;53.172;8.256;2023-02-16T10:37:28;8.30;99.90
16064;DHT22;8136;53.172;8.256;2023-02-16T10:40:17;8.30;99.90
16064;DHT22;8136;53.172;8.256;2023-02-16T10:42:59;8.30;99.90
16064;DHT22;8136;53.172;8.256;2023-02-16T10:45:59;8.30;99.90
16064;DHT22;8136;53.172;8.256;2023-02-16T10:48:52;8.30;99.90
16064;DHT22;8136;53.172;8.256;2023-02-16T10:54:58;8.30;99.90
16064;DHT22;8136;53.172;8.256;2023-02-16T10:57:27;8.30;99.90
16064;DHT22;8136;53.172;8.256;2023-02-16T10:59:57;8.30;99.90
16064;DHT22;8136;53.172;8.256;2023-02-16T11:02:26;8.30;99.90
16064;DHT22;8136;53.172;8.256;2023-02-16T11:04:55;8.30;99.90
16064;DHT22;8136;53.172;8.256;2023-02-16T11:07:23;8.30;99.90
16064;DHT22;8136;53.172;8.256;2023-02-16T11:09:51;8.30;99.90
16064;DHT22;8136;53.172;8.256;2023-02-16T11:12:26;8.30;99.90
16064;DHT22;8136;53.172;8.256;2023-02-16T11:14:57;8.30;99.90
16064;DHT22;8136;53.172;8.256;2023-02-16T11:17:26;8.20;99.90
16064;DHT22;8136;53.172;8.256;2023-02-16T11:19:57;8.20;99.90
16064;DHT22;8136;53.172;8.256;2023-02-16T11:22:30;8.20;99.90
16064;DHT22;8136;53.172;8.256;2023-02-16T11:25:18;8.20;99.90
16064;DHT22;8136;53.172;8.256;2023-02-16T11:27:52;8.20;99.90
16064;DHT22;8136;53.172;8.256;2023-02-16T11:30:27;8.20;99.90
16064;DHT22;8136;53.172;8.256;2023-02-16T11:32:54;8.10;99.90
16064;DHT22;8136;53.172;8.256;2023-02-16T11:35:22;8.10;99.90
16064;DHT22;8136;53.172;8.256;2023-02-16T11:37:49;8.00;99.90
16064;DHT22;8136;53.172;8.256;2023-02-16T11:40:19;8.10;99.90
16064;DHT22;8136;53.172;8.256;2023-02-16T11:42:50;8.10;99.90
16064;DHT22;8136;53.172;8.256;2023-02-16T11:45:24;8.10;99.90
16064;DHT22;8136;53.172;8.256;2023-02-16T11:47:53;8.10;99.90
16064;DHT22;8136;53.172;8.256;2023-02-16T11:50:23;8.10;99.90
16064;DHT22;8136;53.172;8.256;2023-02-16T11:52:55;8.10;99.90
16064;DHT22;8136;53.172;8.256;2023-02-16T11:55:26;8.10;99.90
16064;DHT22;8136;53.172;8.256;2023-02-16T11:57:55;8.10;99.90
16064;DHT22;8136;53.172;8.256;2023-02-16T12:00:39;8.10;99.90
16064;DHT22;8136;53.172;8.256;2023-02-16T12:06:55;8.20;99.90
16064;DHT22;8136;53.172;8.256;2023-02-16T12:10:24;8.30;99.90
16064;DHT22;8136;53.172;8.256;2023-02-16T13:02:26;8.50;99.90
16064;DHT22;8136;53.172;8.256;2023-02-16T13:05:01;8.50;99.90
16064;DHT22;8136;53.172;8.256;2023-02-16T13:07:36;8.50;99.90
16064;DHT22;8136;53.172;8.256;2023-02-16T13:10:16;8.40;99.90
16064;DHT22;8136;53.172;8.256;2023-02-16T13:12:48;8.40;99.90
16064;DHT22;8136;53.172;8.256;2023-02-16T13:15:19;8.30;99.90
16064;DHT22;8136;53.172;8.256;2023-02-16T13:17:49;8.30;99.90
16064;DHT22;8136;53.172;8.256;2023-02-16T13:20:21;8.30;99.90
16064;DHT22;8136;53.172;8.256;2023-02-16T13:23:26;8.30;99.90
16064;DHT22;8136;53.172;8.256;2023-02-16T13:26:10;8.40;99.90
16064;DHT22;8136;53.172;8.256;2023-02-16T13:28:57;8.40;99.90
16064;DHT22;8136;53.172;8.256;2023-02-16T13:31:34;8.30;99.90
16064;DHT22;8136;53.172;8.256;2023-02-16T13:34:35;8.30;99.90
16064;DHT22;8136;53.172;8.256;2023-02-16T13:37:24;8.30;99.90
16064;DHT22;8136;53.172;8.256;2023-02-16T13:40:14;8.20;99.90
16064;DHT22;8136;53.172;8.256;2023-02-16T13:43:04;8.20;99.90
16064;DHT22;8136;53.172;8.256;2023-02-16T13:45:45;8.20;99.90
16064;DHT22;8136;53.172;8.256;2023-02-16T13:48:20;8.20;99.90
16064;DHT22;8136;53.172;8.256;2023-02-16T13:50:55;8.20;99.90
16064;DHT22;8136;53.172;8.256;2023-02-16T13:53:39;8.20;99.90
16064;DHT22;8136;53.172;8.256;2023-02-16T13:56:21;8.20;99.90
16064;DHT22;8136;53.172;8.256;2023-02-16T13:58:49;8.20;99.90
16064;DHT22;8136;53.172;8.256;2023-02-16T14:01:37;8.20;99.90
16064;DHT22;8136;53.172;8.256;2023-02-16T14:04:11;8.20;99.90
16064;DHT22;8136;53.172;8.256;2023-02-16T14:06:39;8.20;99.90
16064;DHT22;8136;53.172;8.256;2023-02-16T14:09:38;8.20;99.90
16064;DHT22;8136;53.172;8.256;2023-02-16T14:12:21;8.20;99.90
16064;DHT22;8136;53.172;8.256;2023-02-16T14:14:56;8.20;99.90
16064;DHT22;8136;53.172;8.256;2023-02-16T14:17:28;8.30;99.90
16064;DHT22;8136;53.172;8.256;2023-02-16T14:19:59;8.30;99.90
16064;DHT22;8136;53.172;8.256;2023-02-16T14:22:36;8.30;99.90
16064;DHT22;8136;53.172;8.256;2023-02-16T14:25:30;8.20;99.90
16064;DHT22;8136;53.172;8.256;2023-02-16T14:27:59;8.30;99.90
16064;DHT22;8136;53.172;8.256;2023-02-16T14:30:30;8.30;99.90
16064;DHT22;8136;53.172;8.256;2023-02-16T14:33:06;8.30;99.90
16064;DHT22;8136;53.172;8.256;2023-02-16T14:35:47;8.30;99.90
16064;DHT22;8136;53.172;8.256;2023-02-16T14:38:32;8.30;99.90
16064;DHT22;8136;53.172;8.256;2023-02-16T14:41:06;8.30;99.90
16064;DHT22;8136;53.172;8.256;2023-02-16T14:43:46;8.30;99.90
16064;DHT22;8136;53.172;8.256;2023-02-16T14:46:32;8.30;99.90
16064;DHT22;8136;53.172;8.256;2023-02-16T14:49:37;8.40;99.90
16064;DHT22;8136;53.172;8.256;2023-02-16T14:52:29;8.40;99.90
16064;DHT22;8136;53.172;8.256;2023-02-16T14:58:35;8.40;99.90
16064;DHT22;8136;53.172;8.256;2023-02-16T15:01:12;8.40;99.90
16064;DHT22;8136;53.172;8.256;2023-02-16T15:03:44;8.50;99.90
16064;DHT22;8136;53.172;8.256;2023-02-16T15:06:19;8.50;99.90
16064;DHT22;8136;53.172;8.256;2023-02-16T15:08:55;8.50;99.90
16064;DHT22;8136;53.172;8.256;2023-02-16T15:11:33;8.50;99.90
16064;DHT22;8136;53.172;8.256;2023-02-16T15:14:06;8.50;99.90
16064;DHT22;8136;53.172;8.256;2023-02-16T15:16:39;8.50;99.90
16064;DHT22;8136;53.172;8.256;2023-02-16T15:19:13;8.50;99.90
16064;DHT22;8136;53.172;8.256;2023-02-16T15:21:42;8.50;99.90
16064;DHT22;8136;53.172;8.256;2023-02-16T15:24:21;8.50;99.90
16064;DHT22;8136;53.172;8.256;2023-02-16T15:26:54;8.50;99.90
16064;DHT22;8136;53.172;8.256;2023-02-16T15:29:29;8.50;99.90
16064;DHT22;8136;53.172;8.256;2023-02-16T15:32:08;8.50;99.90
16064;DHT22;8136;53.172;8.256;2023-02-16T15:34:35;8.50;99.90
16064;DHT22;8136;53.172;8.256;2023-02-16T15:37:21;8.50;99.90
16064;DHT22;8136;53.172;8.256;2023-02-16T15:39:50;8.50;99.90
16064;DHT22;8136;53.172;8.256;2023-02-16T15:42:26;8.50;99.90
16064;DHT22;8136;53.172;8.256;2023-02-16T15:44:56;8.50;99.90
16064;DHT22;8136;53.172;8.256;2023-02-16T15:47:23;8.60;99.90
16064;DHT22;8136;53.172;8.256;2023-02-16T15:49:51;8.60;99.90
16064;DHT22;8136;53.172;8.256;2023-02-16T15:52:21;8.60;99.90
16064;DHT22;8136;53.172;8.256;2023-02-16T15:54:54;8.50;99.90
16064;DHT22;8136;53.172;8.256;2023-02-16T15:57:31;8.60;99.90
16064;DHT22;8136;53.172;8.256;2023-02-16T16:00:20;8.60;99.90
16064;DHT22;8136;53.172;8.256;2023-02-16T16:02:51;8.60;99.90
16064;DHT22;8136;53.172;8.256;2023-02-16T16:05:21;8.60;99.90
16064;DHT22;8136;53.172;8.256;2023-02-16T16:07:51;8.60;99.90
16064;DHT22;8136;53.172;8.256;2023-02-16T16:10:26;8.50;99.90
16064;DHT22;8136;53.172;8.256;2023-02-16T16:12:59;8.50;99.90
16064;DHT22;8136;53.172;8.256;2023-02-16T16:15:40;8.50;99.90
16064;DHT22;8136;53.172;8.256;2023-02-16T16:18:44;8.60;99.90
16064;DHT22;8136;53.172;8.256;2023-02-16T16:21:18;8.50;99.90
16064;DHT22;8136;53.172;8.256;2023-02-16T16:23:59;8.50;99.90
16064;DHT22;8136;53.172;8.256;2023-02-16T16:26:29;8.50;99.90
16064;DHT22;8136;53.172;8.256;2023-02-16T16:28:57;8.50;99.90
16064;DHT22;8136;53.172;8.256;2023-02-16T16:31:43;8.50;99.90
16064;DHT22;8136;53.172;8.256;2023-02-16T16:34:31;8.50;99.90
16064;DHT22;8136;53.172;8.256;2023-02-16T16:36:59;8.50;99.90
16064;DHT22;8136;53.172;8.256;2023-02-16T16:39:30;8.50;99.90
16064;DHT22;8136;53.172;8.256;2023-02-16T16:42:19;8.50;99.90
16064;DHT22;8136;53.172;8.256;2023-02-16T16:44:58;8.50;99.90
16064;DHT22;8136;53.172;8.256;2023-02-16T16:47:31;8.50;99.90
16064;DHT22;8136;53.172;8.256;2023-02-16T16:50:05;8.50;99.90
16064;DHT22;8136;53.172;8.256;2023-02-16T16:52:41;8.40;99.90
16064;DHT22;8136;53.172;8.256;2023-02-16T16:55:22;8.40;99.90
16064;DHT22;8136;53.172;8.256;2023-02-16T16:57:52;8.50;99.90
16064;DHT22;8136;53.172;8.256;2023-02-16T17:00:20;8.40;99.90
16064;DHT22;8136;53.172;8.256;2023-02-16T17:02:51;8.50;99.90
16064;DHT22;8136;53.172;8.256;2023-02-16T17:05:18;8.50;99.90
16064;DHT22;8136;53.172;8.256;2023-02-16T17:07:45;8.50;99.90
16064;DHT22;8136;53.172;8.256;2023-02-16T17:10:15;8.50;99.90
16064;DHT22;8136;53.172;8.256;2023-02-16T17:12:45;8.50;99.90
16064;DHT22;8136;53.172;8.256;2023-02-16T17:15:30;8.50;99.90
16064;DHT22;8136;53.172;8.256;2023-02-16T17:18:03;8.50;99.90
16064;DHT22;8136;53.172;8.256;2023-02-16T17:20:34;8.50;99.90
16064;DHT22;8136;53.172;8.256;2023-02-16T17:23:02;8.50;99.90
16064;DHT22;8136;53.172;8.256;2023-02-16T17:25:35;8.40;99.90
16064;DHT22;8136;53.172;8.256;2023-02-16T17:28:03;8.40;99.90
16064;DHT22;8136;53.172;8.256;2023-02-16T17:30:31;8.40;99.90
16064;DHT22;8136;53.172;8.256;2023-02-16T17:32:59;8.40;99.90
16064;DHT22;8136;53.172;8.256;2023-02-16T17:35:31;8.40;99.90
16064;DHT22;8136;53.172;8.256;2023-02-16T17:38:06;8.40;99.90
16064;DHT22;8136;53.172;8.256;2023-02-16T17:40:33;8.40;99.90
16064;DHT22;8136;53.172;8.256;2023-02-16T17:43:09;8.40;99.90
16064;DHT22;8136;53.172;8.256;2023-02-16T17:45:40;8.40;99.90
16064;DHT22;8136;53.172;8.256;2023-02-16T17:48:09;8.40;99.90
16064;DHT22;8136;53.172;8.256;2023-02-16T17:50:41;8.40;99.90
16064;DHT22;8136;53.172;8.256;2023-02-16T17:53:11;8.40;99.90
16064;DHT22;8136;53.172;8.256;2023-02-16T17:55:41;8.40;99.90
16064;DHT22;8136;53.172;8.256;2023-02-16T17:58:09;8.40;99.90
16064;DHT22;8136;53.172;8.256;2023-02-16T18:00:36;8.40;99.90
16064;DHT22;8136;53.172;8.256;2023-02-16T18:03:05;8.40;99.90
16064;DHT22;8136;53.172;8.256;2023-02-16T18:05:38;8.40;99.90
16064;DHT22;8136;53.172;8.256;2023-02-16T18:08:11;8.40;99.90
16064;DHT22;8136;53.172;8.256;2023-02-16T18:10:45;8.30;99.90